| time (UTC) | temp C | wind direction | speed KPH | gust KPH | rain 1hr cm | rain 24hr cm | rain mn cm | humidity % | barometer mb |
| 20260904025235 | 25 | 245 | 0.0 | 0.0 | 0.00 | 1.12 | 1.12 | 90 | 1014.2 |
| 20260904012238 | 26 | 245 | 0.0 | 0.0 | 0.00 | 1.12 | 1.12 | 88 | 1014.9 |
| 20260904010727 | 26 | 245 | 0.0 | 0.0 | 0.00 | 1.12 | 1.12 | 86 | 1014.5 |
| 20260904005238 | 26 | 245 | 0.0 | 0.0 | 0.00 | 1.12 | 1.12 | 84 | 1014.6 |
| 20260904003758 | 26 | 245 | 0.0 | 0.0 | 0.00 | 1.12 | 1.12 | 82 | 1014.5 |
| 20260904002242 | 26 | 245 | 0.0 | 0.0 | 0.00 | 1.12 | 1.12 | 81 | 1014.2 |
| 20260903183738 | 31 | 244 | 3.2 | 14.5 | 0.00 | 1.14 | 1.12 | 69 | 1014.9 |
| 20260903182232 | 31 | 245 | 0.0 | 11.3 | 0.00 | 1.14 | 1.12 | 68 | 1014.9 |
| 20260903180746 | 31 | 245 | 3.2 | 9.7 | 0.00 | 1.14 | 1.12 | 68 | 1015.2 |
| 20260903175243 | 30 | 245 | 0.0 | 11.3 | 0.00 | 1.14 | 1.12 | 72 | 1015.2 |
| 20260903173739 | 30 | 245 | 3.2 | 14.5 | 0.00 | 1.14 | 1.12 | 74 | 1015.5 |
| 20260903172236 | 29 | 246 | 4.8 | 11.3 | 0.00 | 1.14 | 1.12 | 75 | 1015.8 |
| 20260903170731 | 28 | 247 | 1.6 | 9.7 | 0.00 | 1.14 | 1.12 | 79 | 1015.9 |
| 20260903165230 | 28 | 247 | 1.6 | 6.4 | 0.00 | 1.14 | 1.12 | 80 | 1016.2 |
| 20260903163727 | 27 | 247 | 0.0 | 6.4 | 0.00 | 1.14 | 1.12 | 81 | 1016.0 |
| 20260903162220 | 27 | 247 | 3.2 | 6.4 | 0.00 | 1.14 | 1.12 | 84 | 1016.6 |
| 20260903160739 | 26 | 247 | 1.6 | 8.0 | 0.00 | 1.14 | 1.12 | 85 | 1016.9 |
| 20260903155253 | 26 | 247 | 1.6 | 11.3 | 0.00 | 1.14 | 1.12 | 88 | 1017.3 |
| 20260903153750 | 26 | 247 | 0.0 | 9.7 | 0.00 | 1.14 | 1.12 | 89 | 1017.3 |
| 20260903152243 | 25 | 247 | 1.6 | 3.2 | 0.00 | 1.14 | 1.12 | 99 | 1017.5 |
| 20260903150737 | 24 | 247 | 1.6 | 4.8 | 0.00 | 1.14 | 1.12 | 99 | 1017.1 |
| 20260903145233 | 24 | 247 | 0.0 | 4.8 | 0.00 | 1.14 | 1.12 | 100 | 1017.1 |
| 20260903143729 | 23 | 248 | 0.0 | 12.9 | 0.00 | 1.14 | 1.12 | 100 | 1017.2 |
| 20260903142227 | 23 | 248 | 0.0 | 4.8 | 0.00 | 1.14 | 1.12 | 100 | 1017.1 |